Huvudsida
METAR-TAF:

METAR-TAF

Flygplatser :

Majunga flygplats

Mahajanga, Madagaskar

latitud: 15-40S, longitud: 046-21E, höjd: 26 m

Aktuellt väderrapport

Denna rapport gjordes för 39 minuter sedan, klockan 22:00 UTC
Vind 6 kt från nordost
Temperatur 27°C
Fuktighet 89%
Tryck 1007 hPa
Sikt: 8000 m
Få moln på en höjd av 2000 ft, Cumulonimbus.
Spridda moln på en höjd av 4000 ft
åska, lätt regn

METAR: FMNM 192200Z 05006KT 8000 -TSRA FEW020CB SCT040 27/25 Q1007

Tid: 01:39 (22:39 UTC)

Väderprognos

Denna rapport gjordes för 5 timmar och 39 minuter sedan, klockan 17:00 UTC
Prognos gäller från 19 kl. 18 UTC till 20 kl. 18 UTC
Vind 8 kt från nord/nordväst
Sikt: 8000 m
Få moln på en höjd av 1000 ft
Spridda moln på en höjd av 1500 ft, Cumulonimbus.
Brutna moln på en höjd av 4000 ft
Temporärt
från 19 kl. 18 UTC till 20 kl. 06 UTC
Sikt: 3500 m
regn

TAF: FMNM 191700Z 1918/2018 34008KT 8000 FEW010 SCT015CB BKN040 TEMPO 1918/2006 3500 RA

Aktuella väderrapporter och prognoser från 4000 flygplatser (METAR- och TAF-rapporter).

De tillgängliga stationerna syns som gula och röda prickar på kartan.

För musen över prickarna för att se namnen på stationerna.

Klicka sedan för att få väderrapporter och prognoser.

För att ändra kartan: Klicka på de gröna knapparna med ett svart kors på för att zooma in; den gröna knappen med ett streck på för att zooma ut; eller på de gröna pilarna för angränsande kartor.


METAR-TAF: